Time;durP1;ratioP1;P1;durP2;ratioP2;P2;SDS_P1;SDS_P2;PMS_P1;PMS_P2;Temp;Humidity;BMP_temperature;BMP_pressure;BME280_temperature;BME280_humidity;BME280_pressure;Samples;Min_cycle;Max_cycle;Signal;HPM_P1;HPM_P2
2024/04/23 00:00:53;;;;;;;17.27;4.82;;;;;;;;;;5469954;26;20321;-62
2024/04/23 00:03:19;;;;;;;23.02;6.05;;;;;;;;;;5501906;26;20001;-62
2024/04/23 00:05:45;;;;;;;18.77;4.68;;;;;;;;;;5501895;26;20013;-62
2024/04/23 00:08:11;;;;;;;19.38;5.40;;;;;;;;;;5501727;26;20036;-60
2024/04/23 00:10:37;;;;;;;26.85;5.43;;;;;;;;;;5501661;26;20089;-61
2024/04/23 00:13:03;;;;;;;31.67;5.32;;;;;;;;;;5501627;26;19998;-61
2024/04/23 00:15:29;;;;;;;28.65;5.32;;;;;;;;;;5501726;26;20017;-61
2024/04/23 00:17:55;;;;;;;14.90;4.75;;;;;;;;;;5469348;26;20005;-61
2024/04/23 00:20:21;;;;;;;26.08;5.68;;;;;;;;;;5501467;26;20055;-61
2024/04/23 00:22:47;;;;;;;24.50;4.68;;;;;;;;;;5470592;26;20006;-61
2024/04/23 00:25:13;;;;;;;21.27;5.13;;;;;;;;;;5473345;26;19994;-61
2024/04/23 00:27:39;;;;;;;17.15;4.90;;;;;;;;;;5504474;26;20002;-61
2024/04/23 00:30:05;;;;;;;19.23;4.50;;;;;;;;;;5505081;26;20053;-61
2024/04/23 00:32:31;;;;;;;18.75;4.75;;;;;;;;;;5505052;26;20001;-61
2024/04/23 00:34:57;;;;;;;23.23;5.45;;;;;;;;;;5505091;26;20002;-61
2024/04/23 00:37:23;;;;;;;19.23;4.60;;;;;;;;;;5472854;26;20008;-61
2024/04/23 00:39:49;;;;;;;23.02;4.18;;;;;;;;;;5504890;26;20016;-61
2024/04/23 00:42:15;;;;;;;22.92;4.30;;;;;;;;;;5504602;26;20005;-61
2024/04/23 00:44:41;;;;;;;13.80;3.90;;;;;;;;;;5504927;26;20013;-61
2024/04/23 00:47:07;;;;;;;22.77;4.63;;;;;;;;;;5442933;26;20005;-61
2024/04/23 00:49:33;;;;;;;8.85;3.13;;;;;;;;;;5442695;26;20010;-61
2024/04/23 00:51:59;;;;;;;16.75;3.78;;;;;;;;;;5472650;26;20006;-61
2024/04/23 00:54:25;;;;;;;15.45;4.57;;;;;;;;;;5472693;26;19991;-61
2024/04/23 00:56:52;;;;;;;16.70;4.25;;;;;;;;;;5472744;26;19998;-62
2024/04/23 00:59:18;;;;;;;10.98;3.78;;;;;;;;;;5472790;26;19994;-61
2024/04/23 01:01:44;;;;;;;7.85;3.47;;;;;;;;;;5472774;26;20006;-62
2024/04/23 01:04:10;;;;;;;11.25;4.18;;;;;;;;;;5504804;26;19993;-61
2024/04/23 01:06:36;;;;;;;12.40;3.72;;;;;;;;;;5504455;26;20044;-61
2024/04/23 01:09:05;;;;;;;15.55;4.63;;;;;;;;;;5442718;26;19995;-62
2024/04/23 01:11:31;;;;;;;13.38;4.18;;;;;;;;;;5443122;26;20013;-61
2024/04/23 01:13:57;;;;;;;17.75;3.95;;;;;;;;;;5442554;26;19990;-61
2024/04/23 01:16:24;;;;;;;10.90;4.18;;;;;;;;;;5472293;26;20012;-61
2024/04/23 01:18:50;;;;;;;13.00;4.65;;;;;;;;;;5473338;26;19998;-61
2024/04/23 01:21:17;;;;;;;10.02;3.88;;;;;;;;;;5472340;26;20022;-61
2024/04/23 01:23:48;;;;;;;12.77;3.65;;;;;;;;;;5442355;26;20001;-61
2024/04/23 01:26:14;;;;;;;16.95;4.00;;;;;;;;;;5442219;26;19998;-61
2024/04/23 01:28:41;;;;;;;14.95;3.58;;;;;;;;;;5467214;26;19990;-61
2024/04/23 01:31:07;;;;;;;14.63;3.55;;;;;;;;;;5502208;26;20556;-61
2024/04/23 01:33:33;;;;;;;11.60;3.30;;;;;;;;;;5471601;26;20010;-61
2024/04/23 01:35:59;;;;;;;15.65;4.00;;;;;;;;;;5468852;26;19998;-61
2024/04/23 01:38:25;;;;;;;19.52;3.80;;;;;;;;;;5471547;26;20005;-61
2024/04/23 01:40:51;;;;;;;11.45;3.35;;;;;;;;;;5471584;26;19994;-61
2024/04/23 01:43:17;;;;;;;13.35;4.13;;;;;;;;;;5469204;26;19998;-61
2024/04/23 01:45:43;;;;;;;13.70;3.00;;;;;;;;;;5468470;26;20008;-61
2024/04/23 01:48:09;;;;;;;11.07;3.10;;;;;;;;;;5471108;26;20009;-61
2024/04/23 01:50:35;;;;;;;15.65;3.63;;;;;;;;;;5470458;26;19998;-61
2024/04/23 01:53:01;;;;;;;8.65;3.20;;;;;;;;;;5503731;26;19996;-61
2024/04/23 01:55:27;;;;;;;12.07;2.83;;;;;;;;;;5471944;26;20461;-61
2024/04/23 01:57:53;;;;;;;11.57;3.35;;;;;;;;;;5471979;26;19998;-61
2024/04/23 02:00:19;;;;;;;9.07;3.60;;;;;;;;;;5471844;26;20013;-61
2024/04/23 02:02:46;;;;;;;10.52;3.30;;;;;;;;;;5432760;26;19995;-61
2024/04/23 02:05:12;;;;;;;11.80;3.05;;;;;;;;;;5435739;26;20469;-61
2024/04/23 02:07:38;;;;;;;9.23;3.13;;;;;;;;;;5435628;26;20001;-61
2024/04/23 02:10:04;;;;;;;13.95;3.70;;;;;;;;;;5471198;26;19994;-61
2024/04/23 02:12:30;;;;;;;9.98;2.80;;;;;;;;;;5471695;26;20005;-61
2024/04/23 02:14:56;;;;;;;11.45;3.38;;;;;;;;;;5503629;26;19994;-61
2024/04/23 02:17:22;;;;;;;11.90;3.30;;;;;;;;;;5471735;26;20463;-61
2024/04/23 02:19:48;;;;;;;8.40;2.90;;;;;;;;;;5503485;26;20026;-62
2024/04/23 02:22:14;;;;;;;8.82;3.13;;;;;;;;;;5502999;26;20002;-61
2024/04/23 02:24:40;;;;;;;6.97;2.78;;;;;;;;;;5503708;26;20006;-61
2024/04/23 02:27:06;;;;;;;7.65;3.28;;;;;;;;;;5503242;26;20009;-61
2024/04/23 02:29:32;;;;;;;9.77;3.00;;;;;;;;;;5503500;26;20005;-61
2024/04/23 02:32:01;;;;;;;9.15;3.83;;;;;;;;;;5503172;26;20037;-61
2024/04/23 02:34:27;;;;;;;7.45;2.22;;;;;;;;;;5471502;26;20005;-61
2024/04/23 02:36:54;;;;;;;6.82;2.70;;;;;;;;;;5503243;26;19998;-61
2024/04/23 02:39:20;;;;;;;7.05;2.78;;;;;;;;;;5503228;26;19998;-61
2024/04/23 02:41:49;;;;;;;6.47;2.90;;;;;;;;;;5471169;26;19998;-61
2024/04/23 02:44:15;;;;;;;4.82;2.60;;;;;;;;;;5503306;26;20004;-61
2024/04/23 02:46:41;;;;;;;6.78;2.45;;;;;;;;;;5501873;26;19998;-61
2024/04/23 02:49:07;;;;;;;8.82;2.90;;;;;;;;;;5503207;26;19990;-60
2024/04/23 02:51:33;;;;;;;4.80;2.22;;;;;;;;;;5502933;26;20014;-61
2024/04/23 02:53:59;;;;;;;6.25;2.72;;;;;;;;;;5470953;26;20444;-61
2024/04/23 02:56:26;;;;;;;7.13;2.47;;;;;;;;;;5503131;26;20008;-61
2024/04/23 02:58:52;;;;;;;6.47;2.10;;;;;;;;;;5471379;26;19998;-61
2024/04/23 03:01:18;;;;;;;4.75;2.70;;;;;;;;;;5470931;26;20002;-61
2024/04/23 03:03:44;;;;;;;6.20;3.17;;;;;;;;;;5471133;26;20002;-61
2024/04/23 03:06:10;;;;;;;5.63;2.63;;;;;;;;;;5502873;26;20047;-61
2024/04/23 03:08:36;;;;;;;5.18;2.45;;;;;;;;;;5470868;26;20043;-61
2024/04/23 03:11:02;;;;;;;5.40;2.67;;;;;;;;;;5502735;26;20524;-61
2024/04/23 03:13:28;;;;;;;4.93;2.22;;;;;;;;;;5470893;26;19994;-61
2024/04/23 03:15:54;;;;;;;6.90;2.53;;;;;;;;;;5503020;26;20022;-61
2024/04/23 03:18:20;;;;;;;8.07;2.47;;;;;;;;;;5440719;26;19994;-61
2024/04/23 03:20:46;;;;;;;10.07;3.00;;;;;;;;;;5470625;26;19994;-61
2024/04/23 03:23:12;;;;;;;4.57;2.47;;;;;;;;;;5470605;26;20009;-61
2024/04/23 03:25:38;;;;;;;7.03;2.85;;;;;;;;;;5502497;26;20005;-61
2024/04/23 03:28:04;;;;;;;7.57;2.90;;;;;;;;;;5470269;26;20009;-61
2024/04/23 03:30:30;;;;;;;7.53;2.55;;;;;;;;;;5440464;26;20002;-61
2024/04/23 03:32:56;;;;;;;8.05;2.45;;;;;;;;;;5502373;26;19998;-61
2024/04/23 03:35:22;;;;;;;5.07;2.40;;;;;;;;;;5502467;26;20005;-61
2024/04/23 03:37:48;;;;;;;7.68;2.38;;;;;;;;;;5502398;26;19994;-61
2024/04/23 03:40:14;;;;;;;4.90;2.05;;;;;;;;;;5502046;26;20005;-61
2024/04/23 03:42:40;;;;;;;4.72;2.53;;;;;;;;;;5470107;26;19998;-61
2024/04/23 03:45:06;;;;;;;5.40;2.42;;;;;;;;;;5502473;26;19994;-61
2024/04/23 03:47:32;;;;;;;5.82;2.60;;;;;;;;;;5469935;26;20070;-61
2024/04/23 03:49:58;;;;;;;3.42;2.03;;;;;;;;;;5470326;26;20002;-61
2024/04/23 03:52:26;;;;;;;4.18;2.50;;;;;;;;;;5501873;26;20006;-61
2024/04/23 03:54:52;;;;;;;8.23;2.60;;;;;;;;;;5501969;26;19996;-61
2024/04/23 03:57:18;;;;;;;4.35;2.35;;;;;;;;;;5503668;26;20078;-61
2024/04/23 03:59:44;;;;;;;5.25;2.33;;;;;;;;;;5473795;26;20433;-62
2024/04/23 04:07:39;;;;;;;4.40;2.33;;;;;;;;;;5505527;26;20010;-61
2024/04/23 04:10:06;;;;;;;8.18;2.53;;;;;;;;;;5505381;26;20002;-61
2024/04/23 04:12:32;;;;;;;8.75;2.67;;;;;;;;;;5505232;26;20011;-61
2024/04/23 04:14:58;;;;;;;7.70;2.55;;;;;;;;;;5505324;26;20001;-61
2024/04/23 04:17:24;;;;;;;6.65;2.60;;;;;;;;;;5472977;26;20006;-62
2024/04/23 04:19:50;;;;;;;8.95;2.60;;;;;;;;;;5473331;26;19989;-61
2024/04/23 04:22:16;;;;;;;6.45;2.70;;;;;;;;;;5473376;26;20013;-61
2024/04/23 04:24:42;;;;;;;9.13;2.55;;;;;;;;;;5505211;26;19990;-61
2024/04/23 04:27:07;;;;;;;6.57;2.60;;;;;;;;;;5505019;26;20082;-61
2024/04/23 04:29:34;;;;;;;6.35;2.42;;;;;;;;;;5505205;26;19998;-61
2024/04/23 04:32:00;;;;;;;7.10;2.58;;;;;;;;;;5505018;26;20017;-61
2024/04/23 04:34:26;;;;;;;8.80;2.80;;;;;;;;;;5473600;26;20431;-61
2024/04/23 04:36:52;;;;;;;9.43;2.63;;;;;;;;;;5505004;26;20009;-61
2024/04/23 04:39:18;;;;;;;7.43;2.30;;;;;;;;;;5473066;26;19994;-61
2024/04/23 04:41:44;;;;;;;6.07;2.95;;;;;;;;;;5504765;26;20017;-61
2024/04/23 04:44:10;;;;;;;7.43;2.70;;;;;;;;;;5472831;26;19993;-62
2024/04/23 04:46:36;;;;;;;6.93;2.17;;;;;;;;;;5504917;26;20017;-61
2024/04/23 04:49:02;;;;;;;9.77;2.60;;;;;;;;;;5504883;26;20313;-61
2024/04/23 04:51:28;;;;;;;6.90;2.83;;;;;;;;;;5472716;26;19998;-62
2024/04/23 04:53:54;;;;;;;8.00;2.42;;;;;;;;;;5504618;26;19994;-61
2024/04/23 04:56:19;;;;;;;8.93;2.60;;;;;;;;;;5472321;26;20047;-61
2024/04/23 04:58:45;;;;;;;11.93;3.28;;;;;;;;;;5504525;26;19997;-61
2024/04/23 05:01:12;;;;;;;8.75;2.90;;;;;;;;;;5504650;26;20094;-61
2024/04/23 05:03:38;;;;;;;12.68;3.13;;;;;;;;;;5504530;26;20020;-62
2024/04/23 05:06:04;;;;;;;5.43;2.33;;;;;;;;;;5504740;26;20042;-61
2024/04/23 05:08:30;;;;;;;7.93;2.80;;;;;;;;;;5471859;26;20001;-61
2024/04/23 05:10:56;;;;;;;7.18;3.10;;;;;;;;;;5472593;26;20397;-61
2024/04/23 05:13:22;;;;;;;4.93;2.85;;;;;;;;;;5472100;26;20013;-61
2024/04/23 05:15:48;;;;;;;6.25;2.60;;;;;;;;;;5504493;26;20006;-61
2024/04/23 05:18:14;;;;;;;16.58;3.08;;;;;;;;;;5472408;26;20030;-62
2024/04/23 05:20:40;;;;;;;15.20;3.30;;;;;;;;;;5504058;26;19994;-61
2024/04/23 05:23:06;;;;;;;9.63;2.92;;;;;;;;;;5472116;26;20108;-61
2024/04/23 05:25:32;;;;;;;14.27;3.00;;;;;;;;;;5504007;26;20001;-61
2024/04/23 05:27:58;;;;;;;10.85;3.35;;;;;;;;;;5503793;26;19994;-61
2024/04/23 05:33:09;;;;;;;9.63;2.75;;;;;;;;;;5477138;26;20013;-62
2024/04/23 05:35:35;;;;;;;16.25;3.45;;;;;;;;;;5504297;26;20002;-61
2024/04/23 05:38:01;;;;;;;37.47;4.22;;;;;;;;;;5503993;26;20001;-61
2024/04/23 05:40:27;;;;;;;14.52;4.95;;;;;;;;;;5472191;26;20009;-61
2024/04/23 05:42:53;;;;;;;21.33;4.35;;;;;;;;;;5503812;26;20028;-61
2024/04/23 05:45:19;;;;;;;21.00;4.90;;;;;;;;;;5472130;26;19998;-62
2024/04/23 05:48:04;;;;;;;24.10;3.80;;;;;;;;;;5503934;26;20016;-61
2024/04/23 05:50:48;;;;;;;10.55;3.55;;;;;;;;;;5504103;26;19994;-62
2024/04/23 05:53:33;;;;;;;21.42;4.00;;;;;;;;;;5503858;26;20030;-61
2024/04/23 05:55:59;;;;;;;13.98;4.18;;;;;;;;;;5471504;26;20030;-61
2024/04/23 05:58:25;;;;;;;10.60;3.97;;;;;;;;;;5503331;26;19998;-62
2024/04/23 06:00:53;;;;;;;11.45;3.97;;;;;;;;;;5471559;26;20051;-62
2024/04/23 06:03:19;;;;;;;13.80;4.15;;;;;;;;;;5503783;26;20002;-61
2024/04/23 06:05:45;;;;;;;11.73;3.67;;;;;;;;;;5503747;26;20044;-61
2024/04/23 06:08:11;;;;;;;12.98;3.95;;;;;;;;;;5503440;26;20010;-61
2024/04/23 06:10:38;;;;;;;17.92;4.43;;;;;;;;;;5471725;26;19993;-61
2024/04/23 06:13:04;;;;;;;13.75;3.72;;;;;;;;;;5471430;26;20006;-62
2024/04/23 06:15:30;;;;;;;27.55;4.28;;;;;;;;;;5471401;26;19998;-61
2024/04/23 06:17:56;;;;;;;11.88;4.15;;;;;;;;;;5471354;26;20146;-61
2024/04/23 06:20:22;;;;;;;20.10;4.00;;;;;;;;;;5501721;26;19998;-61
2024/04/23 06:22:51;;;;;;;16.23;4.38;;;;;;;;;;5471520;26;19998;-61
2024/04/23 06:25:17;;;;;;;21.98;4.47;;;;;;;;;;5503222;26;19998;-61
2024/04/23 06:27:43;;;;;;;18.83;4.60;;;;;;;;;;5470104;26;20036;-61
2024/04/23 06:30:10;;;;;;;7.63;3.72;;;;;;;;;;5502149;26;20002;-61
2024/04/23 06:32:39;;;;;;;15.80;4.57;;;;;;;;;;5469389;26;20022;-61
2024/04/23 06:35:06;;;;;;;11.15;3.78;;;;;;;;;;5499095;26;19998;-62
2024/04/23 06:37:32;;;;;;;13.10;3.97;;;;;;;;;;5468733;26;20009;-62
2024/04/23 06:39:58;;;;;;;9.15;4.90;;;;;;;;;;5501945;26;19998;-50
2024/04/23 06:42:24;;;;;;;11.15;4.18;;;;;;;;;;5502590;26;20100;-51
2024/04/23 06:44:50;;;;;;;14.48;4.55;;;;;;;;;;5501048;26;19998;-50
2024/04/23 06:47:19;;;;;;;11.40;4.70;;;;;;;;;;5452417;26;20354;-51
2024/04/23 06:49:46;;;;;;;12.50;3.95;;;;;;;;;;5465682;26;20017;-51
2024/04/23 06:52:14;;;;;;;15.40;4.65;;;;;;;;;;5465242;26;20003;-51
2024/04/23 06:54:41;;;;;;;21.90;4.55;;;;;;;;;;5477003;26;20013;-50
2024/04/23 06:57:07;;;;;;;11.35;3.80;;;;;;;;;;5488181;26;20003;-51
2024/04/23 06:59:33;;;;;;;16.60;4.47;;;;;;;;;;5461603;26;20008;-51
2024/04/23 07:01:59;;;;;;;20.40;5.55;;;;;;;;;;5496462;26;20047;-50
2024/04/23 07:04:25;;;;;;;9.57;4.30;;;;;;;;;;5463154;26;19998;-51
2024/04/23 07:06:54;;;;;;;14.95;5.18;;;;;;;;;;5462553;26;20008;-50
2024/04/23 07:09:20;;;;;;;13.10;5.20;;;;;;;;;;5429814;26;20013;-50
2024/04/23 07:11:46;;;;;;;12.48;5.05;;;;;;;;;;5474708;26;20014;-51
2024/04/23 07:14:12;;;;;;;14.40;4.55;;;;;;;;;;5475395;26;20349;-51
2024/04/23 07:16:42;;;;;;;11.32;4.20;;;;;;;;;;5495501;26;20002;-51
2024/04/23 07:19:08;;;;;;;11.18;4.82;;;;;;;;;;5477757;26;20010;-51
2024/04/23 07:21:34;;;;;;;20.23;5.85;;;;;;;;;;5484142;26;19995;-51
2024/04/23 07:24:00;;;;;;;20.42;5.25;;;;;;;;;;5484092;26;20455;-51
2024/04/23 07:26:26;;;;;;;24.08;5.70;;;;;;;;;;5498057;26;20005;-51
2024/04/23 07:28:52;;;;;;;19.67;6.10;;;;;;;;;;5500760;26;20014;-51
2024/04/23 07:31:19;;;;;;;30.25;5.93;;;;;;;;;;5475001;26;20009;-51
2024/04/23 07:33:45;;;;;;;25.20;6.80;;;;;;;;;;5451712;26;20012;-50
2024/04/23 07:36:11;;;;;;;34.75;7.40;;;;;;;;;;5500978;26;20002;-51
2024/04/23 07:38:37;;;;;;;39.90;6.93;;;;;;;;;;5477572;26;20002;-51
2024/04/23 07:41:04;;;;;;;26.05;6.70;;;;;;;;;;5477011;26;20467;-51
2024/04/23 07:43:31;;;;;;;47.45;8.75;;;;;;;;;;5473822;26;20018;-51
2024/04/23 07:45:57;;;;;;;28.45;6.55;;;;;;;;;;5501238;26;20017;-51
2024/04/23 07:48:23;;;;;;;22.23;6.63;;;;;;;;;;5463145;26;20003;-51
2024/04/23 07:50:50;;;;;;;23.05;5.70;;;;;;;;;;5463927;26;20052;-51
2024/04/23 07:53:16;;;;;;;24.48;5.85;;;;;;;;;;5465383;26;19999;-50
2024/04/23 07:55:43;;;;;;;31.33;6.85;;;;;;;;;;5446945;26;20025;-50
2024/04/23 07:58:09;;;;;;;20.85;5.72;;;;;;;;;;5462036;26;19998;-51
2024/04/23 08:00:35;;;;;;;45.38;7.15;;;;;;;;;;5473068;26;20120;-51
2024/04/23 08:03:02;;;;;;;34.20;7.15;;;;;;;;;;5495918;26;19994;-51
2024/04/23 08:05:28;;;;;;;35.80;7.18;;;;;;;;;;5493435;26;19994;-51
2024/04/23 08:07:54;;;;;;;34.22;7.35;;;;;;;;;;5457776;26;19994;-50
2024/04/23 08:10:20;;;;;;;23.80;7.30;;;;;;;;;;5460737;26;19999;-50
2024/04/23 08:12:47;;;;;;;45.10;8.13;;;;;;;;;;5497426;26;19998;-51
2024/04/23 08:15:13;;;;;;;39.95;7.85;;;;;;;;;;5456350;26;20003;-51
2024/04/23 08:17:39;;;;;;;32.47;7.20;;;;;;;;;;5463887;26;20002;-50
2024/04/23 08:20:05;;;;;;;40.95;6.43;;;;;;;;;;5495369;26;20013;-51
2024/04/23 08:22:31;;;;;;;42.90;8.43;;;;;;;;;;5428842;26;19995;-51
2024/04/23 08:24:57;;;;;;;40.70;8.00;;;;;;;;;;5460569;26;20048;-50
2024/04/23 08:27:23;;;;;;;43.92;9.68;;;;;;;;;;5453594;26;20070;-51
2024/04/23 08:29:49;;;;;;;42.35;9.20;;;;;;;;;;5451084;26;20027;-51
2024/04/23 08:32:15;;;;;;;46.53;8.40;;;;;;;;;;5431637;26;20449;-51
2024/04/23 08:34:41;;;;;;;42.67;8.77;;;;;;;;;;5466464;26;20010;-51
2024/04/23 08:37:08;;;;;;;59.80;8.55;;;;;;;;;;5466241;26;19998;-51
2024/04/23 08:39:34;;;;;;;42.60;7.65;;;;;;;;;;5470465;26;20032;-51
2024/04/23 08:42:00;;;;;;;51.40;8.65;;;;;;;;;;5421517;26;20002;-51
2024/04/23 08:44:26;;;;;;;47.05;8.43;;;;;;;;;;5433489;26;20023;-51
2024/04/23 08:46:53;;;;;;;47.03;8.18;;;;;;;;;;5469609;26;20006;-51
2024/04/23 08:49:19;;;;;;;132.60;17.25;;;;;;;;;;5467916;26;20004;-51
2024/04/23 08:51:45;;;;;;;79.03;10.02;;;;;;;;;;5452105;26;20451;-51
2024/04/23 08:54:11;;;;;;;47.55;8.48;;;;;;;;;;5496353;26;19994;-51
2024/04/23 08:56:38;;;;;;;49.00;8.38;;;;;;;;;;5442034;26;20389;-51
2024/04/23 08:59:08;;;;;;;74.07;10.15;;;;;;;;;;5497910;26;20013;-51
2024/04/23 09:01:39;;;;;;;64.97;9.32;;;;;;;;;;5464647;26;19998;-51
2024/04/23 09:04:05;;;;;;;45.50;7.70;;;;;;;;;;5496166;26;20038;-51
2024/04/23 09:06:31;;;;;;;49.33;8.38;;;;;;;;;;5464205;26;20006;-51
2024/04/23 09:08:59;;;;;;;35.97;7.60;;;;;;;;;;5471624;26;20397;-50
2024/04/23 09:11:31;;;;;;;41.25;8.45;;;;;;;;;;5469772;26;20001;-51
2024/04/23 09:13:57;;;;;;;50.90;8.18;;;;;;;;;;5465982;26;20050;-51
2024/04/23 09:16:23;;;;;;;36.22;7.53;;;;;;;;;;5470658;26;20031;-50
2024/04/23 09:18:49;;;;;;;46.33;8.77;;;;;;;;;;5469431;26;20005;-51
2024/04/23 09:21:15;;;;;;;36.05;7.45;;;;;;;;;;5502436;26;20020;-51
2024/04/23 09:23:42;;;;;;;55.72;10.23;;;;;;;;;;5499515;26;19990;-50
2024/04/23 09:26:08;;;;;;;48.78;8.13;;;;;;;;;;5473792;26;20009;-50
2024/04/23 09:28:34;;;;;;;45.92;8.27;;;;;;;;;;5502725;26;20356;-51
2024/04/23 09:31:00;;;;;;;38.75;7.57;;;;;;;;;;5470910;26;20070;-51
2024/04/23 09:33:29;;;;;;;55.75;9.85;;;;;;;;;;5499170;26;20076;-51
2024/04/23 09:36:04;;;;;;;42.60;8.23;;;;;;;;;;5469509;26;20006;-51
2024/04/23 09:38:34;;;;;;;45.42;7.82;;;;;;;;;;5438254;26;20002;-51
2024/04/23 09:41:01;;;;;;;26.67;6.97;;;;;;;;;;5502132;26;20020;-51
2024/04/23 09:43:27;;;;;;;32.90;7.65;;;;;;;;;;5499800;26;19998;-51
2024/04/23 09:45:53;;;;;;;51.47;7.40;;;;;;;;;;5459663;26;19994;-51
2024/04/23 09:48:28;;;;;;;43.83;8.23;;;;;;;;;;5468693;26;19998;-51
2024/04/23 09:51:01;;;;;;;43.20;9.15;;;;;;;;;;5498545;26;20039;-50
2024/04/23 09:53:29;;;;;;;43.28;8.07;;;;;;;;;;5467078;26;20028;-51
2024/04/23 09:56:02;;;;;;;52.28;8.82;;;;;;;;;;5454329;26;20100;-51
2024/04/23 09:58:32;;;;;;;47.92;9.18;;;;;;;;;;5445155;26;20005;-51
2024/04/23 10:00:58;;;;;;;60.85;9.40;;;;;;;;;;5448663;26;19998;-51
2024/04/23 10:03:24;;;;;;;46.83;8.45;;;;;;;;;;5476719;26;20002;-51
2024/04/23 10:05:50;;;;;;;53.53;8.45;;;;;;;;;;5417473;26;20001;-51
2024/04/23 10:08:21;;;;;;;44.03;9.50;;;;;;;;;;5474172;26;20093;-51
2024/04/23 10:10:49;;;;;;;40.20;8.65;;;;;;;;;;5443705;26;20854;-51
2024/04/23 10:13:16;;;;;;;43.92;8.45;;;;;;;;;;5439795;26;20002;-51
2024/04/23 10:15:57;;;;;;;52.03;9.38;;;;;;;;;;5438823;26;20005;-51
2024/04/23 10:18:40;;;;;;;43.25;9.85;;;;;;;;;;5448390;26;20003;-50
2024/04/23 10:21:07;;;;;;;65.50;12.13;;;;;;;;;;5492294;26;20040;-51
2024/04/23 10:23:33;;;;;;;41.90;8.20;;;;;;;;;;5448232;26;20010;-51
2024/04/23 10:26:00;;;;;;;58.00;11.88;;;;;;;;;;5473996;26;20098;-51
2024/04/23 10:28:27;;;;;;;77.03;11.80;;;;;;;;;;5443861;26;20009;-51
2024/04/23 10:30:53;;;;;;;59.17;10.30;;;;;;;;;;5443126;26;19998;-51
2024/04/23 10:33:19;;;;;;;72.68;10.20;;;;;;;;;;5490722;26;20013;-51
2024/04/23 10:35:45;;;;;;;74.53;10.68;;;;;;;;;;5468720;26;19994;-51
2024/04/23 10:38:14;;;;;;;81.45;10.50;;;;;;;;;;5458279;26;20012;-51
2024/04/23 10:40:40;;;;;;;81.07;12.13;;;;;;;;;;5454892;26;20001;-51
2024/04/23 10:43:06;;;;;;;108.25;13.48;;;;;;;;;;5446560;26;19995;-51
2024/04/23 10:45:32;;;;;;;82.07;12.98;;;;;;;;;;5441888;26;19999;-51
2024/04/23 10:48:05;;;;;;;72.65;10.65;;;;;;;;;;5435598;26;20030;-48
2024/04/23 10:50:32;;;;;;;59.15;10.63;;;;;;;;;;5444475;26;19994;-51
2024/04/23 10:52:59;;;;;;;48.67;9.68;;;;;;;;;;5463483;26;20072;-51
2024/04/23 10:55:25;;;;;;;101.18;12.68;;;;;;;;;;5462426;26;20460;-51
2024/04/23 10:57:52;;;;;;;57.15;9.82;;;;;;;;;;5466246;26;19998;-51
2024/04/23 11:00:25;;;;;;;87.43;12.10;;;;;;;;;;5452095;26;20001;-51
2024/04/23 11:02:52;;;;;;;71.53;11.35;;;;;;;;;;5463027;26;19998;-51
2024/04/23 11:05:18;;;;;;;60.58;9.68;;;;;;;;;;5453668;26;20010;-51
2024/04/23 11:07:51;;;;;;;94.07;12.55;;;;;;;;;;5448908;26;20273;-51
2024/04/23 11:10:20;;;;;;;75.90;11.35;;;;;;;;;;5456097;26;20005;-51
2024/04/23 11:12:46;;;;;;;67.45;12.10;;;;;;;;;;5470540;26;20007;-51
2024/04/23 11:15:18;;;;;;;55.65;10.38;;;;;;;;;;5433498;26;20832;-51
2024/04/23 11:17:44;;;;;;;49.75;11.05;;;;;;;;;;5453140;26;20014;-51
2024/04/23 11:20:10;;;;;;;70.68;11.77;;;;;;;;;;5486162;26;20002;-51
2024/04/23 11:22:48;;;;;;;70.03;10.07;;;;;;;;;;5483762;26;20022;-51
2024/04/23 11:25:25;;;;;;;62.72;10.25;;;;;;;;;;5456171;26;20002;-51
2024/04/23 11:27:51;;;;;;;73.80;11.10;;;;;;;;;;5429092;26;20010;-51
2024/04/23 11:30:18;;;;;;;73.38;11.25;;;;;;;;;;5460607;26;20010;-51
2024/04/23 11:32:44;;;;;;;81.40;11.80;;;;;;;;;;5494568;26;20455;-51
2024/04/23 11:35:17;;;;;;;51.75;9.73;;;;;;;;;;5464349;26;20012;-51
2024/04/23 11:37:43;;;;;;;61.92;9.45;;;;;;;;;;5454552;26;19994;-51
2024/04/23 11:40:09;;;;;;;58.80;9.65;;;;;;;;;;5494345;26;20005;-51
2024/04/23 11:42:35;;;;;;;54.53;9.13;;;;;;;;;;5456402;26;20014;-51
2024/04/23 11:45:04;;;;;;;47.90;8.55;;;;;;;;;;5476283;26;20685;-51
2024/04/23 11:47:30;;;;;;;70.05;8.90;;;;;;;;;;5479650;26;19994;-51
2024/04/23 11:49:56;;;;;;;58.13;11.52;;;;;;;;;;5493485;26;20009;-51
2024/04/23 11:52:23;;;;;;;50.05;9.70;;;;;;;;;;5484372;26;20002;-51
2024/04/23 11:54:49;;;;;;;54.00;9.55;;;;;;;;;;5472525;26;20039;-51
2024/04/23 11:57:15;;;;;;;48.63;9.25;;;;;;;;;;5471514;26;20010;-51
2024/04/23 11:59:42;;;;;;;51.33;8.32;;;;;;;;;;5471946;26;20725;-51
2024/04/23 12:02:08;;;;;;;47.33;8.25;;;;;;;;;;5482384;26;20013;-51
2024/04/23 12:04:34;;;;;;;67.00;8.95;;;;;;;;;;5504430;26;19994;-51
2024/04/23 12:07:00;;;;;;;55.88;8.20;;;;;;;;;;5460746;26;20006;-51
2024/04/23 12:09:27;;;;;;;47.85;8.55;;;;;;;;;;5458224;26;19998;-51
2024/04/23 12:11:53;;;;;;;54.08;8.13;;;;;;;;;;5493894;26;20006;-51
2024/04/23 12:14:19;;;;;;;41.00;8.20;;;;;;;;;;5466998;26;20051;-51
2024/04/23 12:16:45;;;;;;;66.65;9.73;;;;;;;;;;5461003;26;20336;-51
2024/04/23 12:19:11;;;;;;;70.07;9.65;;;;;;;;;;5456938;26;19994;-51
2024/04/23 12:21:38;;;;;;;56.45;9.40;;;;;;;;;;5468482;26;20006;-51
2024/04/23 12:24:04;;;;;;;70.65;10.20;;;;;;;;;;5468424;26;19994;-51
2024/04/23 12:26:34;;;;;;;58.03;11.15;;;;;;;;;;5499374;26;20070;-51
2024/04/23 12:29:00;;;;;;;59.13;9.85;;;;;;;;;;5488144;26;20010;-51
2024/04/23 12:31:25;;;;;;;86.15;11.05;;;;;;;;;;5497604;26;20062;-51
2024/04/23 12:33:56;;;;;;;71.53;9.90;;;;;;;;;;5453055;26;20571;-51
2024/04/23 12:36:22;;;;;;;52.75;9.80;;;;;;;;;;5470478;26;19990;-51
2024/04/23 12:38:48;;;;;;;80.03;10.98;;;;;;;;;;5465514;26;20003;-51
2024/04/23 12:41:18;;;;;;;65.13;10.38;;;;;;;;;;5495596;26;20389;-51
2024/04/23 12:43:44;;;;;;;66.28;10.85;;;;;;;;;;5467039;26;20013;-51
2024/04/23 12:46:11;;;;;;;83.03;11.82;;;;;;;;;;5490830;26;19994;-51
2024/04/23 12:48:37;;;;;;;121.90;13.10;;;;;;;;;;5504280;26;20368;-51
2024/04/23 12:51:03;;;;;;;75.88;12.80;;;;;;;;;;5470655;26;20021;-51
2024/04/23 12:53:29;;;;;;;82.25;11.57;;;;;;;;;;5461126;26;19995;-51
2024/04/23 12:55:55;;;;;;;67.55;11.05;;;;;;;;;;5491853;26;20012;-51
2024/04/23 12:58:22;;;;;;;76.65;11.50;;;;;;;;;;5436842;26;20013;-51
2024/04/23 13:00:48;;;;;;;59.80;10.90;;;;;;;;;;5464691;26;19998;-51
2024/04/23 13:03:14;;;;;;;64.00;8.90;;;;;;;;;;5473624;26;20444;-51
2024/04/23 13:05:45;;;;;;;77.28;10.68;;;;;;;;;;5503583;26;20006;-51
2024/04/23 13:08:11;;;;;;;77.85;11.50;;;;;;;;;;5468756;26;20051;-51
2024/04/23 13:10:37;;;;;;;85.25;11.13;;;;;;;;;;5493169;26;20004;-51
2024/04/23 13:13:07;;;;;;;73.63;10.75;;;;;;;;;;5463898;26;19999;-51
2024/04/23 13:15:34;;;;;;;60.50;9.60;;;;;;;;;;5478887;26;20095;-51
2024/04/23 13:18:00;;;;;;;59.05;9.45;;;;;;;;;;5467236;26;20324;-51
2024/04/23 13:20:26;;;;;;;61.17;9.88;;;;;;;;;;5501890;26;19998;-51
2024/04/23 13:22:52;;;;;;;65.35;9.77;;;;;;;;;;5470830;26;20008;-51
2024/04/23 13:25:18;;;;;;;56.10;9.15;;;;;;;;;;5466373;26;20002;-51
2024/04/23 13:27:44;;;;;;;60.42;7.70;;;;;;;;;;5471040;26;20556;-51
2024/04/23 13:30:11;;;;;;;59.25;8.45;;;;;;;;;;5450590;26;20072;-51
2024/04/23 13:32:37;;;;;;;56.22;8.90;;;;;;;;;;5459931;26;19999;-51
2024/04/23 13:35:04;;;;;;;55.30;8.50;;;;;;;;;;5464995;26;19990;-51
2024/04/23 13:37:31;;;;;;;38.30;7.50;;;;;;;;;;5466846;26;20070;-51
2024/04/23 13:40:00;;;;;;;53.83;9.15;;;;;;;;;;5469007;26;19990;-51
2024/04/23 13:42:26;;;;;;;56.97;7.35;;;;;;;;;;5499566;26;20023;-51
2024/04/23 13:44:52;;;;;;;43.05;8.13;;;;;;;;;;5465710;26;20023;-51
2024/04/23 13:47:18;;;;;;;53.00;8.32;;;;;;;;;;5459259;26;20045;-51
2024/04/23 13:49:44;;;;;;;42.88;7.68;;;;;;;;;;5459773;26;19995;-51
2024/04/23 13:52:10;;;;;;;54.42;8.35;;;;;;;;;;5455255;26;20400;-51
2024/04/23 13:54:36;;;;;;;51.42;9.32;;;;;;;;;;5470088;26;19998;-51
2024/04/23 13:57:03;;;;;;;37.83;6.93;;;;;;;;;;5466742;26;19994;-51
2024/04/23 13:59:29;;;;;;;49.67;7.78;;;;;;;;;;5499977;26;20018;-51
2024/04/23 14:01:55;;;;;;;44.30;6.32;;;;;;;;;;5439173;26;19998;-51
2024/04/23 14:04:21;;;;;;;31.55;5.68;;;;;;;;;;5499487;26;20032;-51
2024/04/23 14:06:47;;;;;;;49.55;7.18;;;;;;;;;;5466484;26;20003;-51
2024/04/23 14:09:13;;;;;;;52.20;8.27;;;;;;;;;;5492500;26;20075;-51
2024/04/23 14:11:39;;;;;;;46.75;7.13;;;;;;;;;;5470171;26;20002;-51
2024/04/23 14:14:06;;;;;;;65.15;9.38;;;;;;;;;;5472484;26;20328;-51
2024/04/23 14:16:32;;;;;;;79.30;11.18;;;;;;;;;;5500351;26;20002;-51
2024/04/23 14:18:58;;;;;;;72.60;11.23;;;;;;;;;;5454686;26;20027;-51
2024/04/23 14:21:25;;;;;;;55.72;10.35;;;;;;;;;;5485570;26;20047;-51
2024/04/23 14:23:51;;;;;;;78.95;10.13;;;;;;;;;;5501531;26;20018;-51
2024/04/23 14:26:17;;;;;;;58.00;9.77;;;;;;;;;;5498768;26;20010;-51
2024/04/23 14:28:43;;;;;;;68.97;10.70;;;;;;;;;;5484715;26;20017;-51
2024/04/23 14:31:09;;;;;;;72.53;10.35;;;;;;;;;;5502273;26;20002;-51
2024/04/23 14:33:37;;;;;;;71.47;10.15;;;;;;;;;;5470390;26;20353;-51
2024/04/23 14:36:03;;;;;;;88.90;13.65;;;;;;;;;;5469375;26;19998;-51